sensor_id;sensor_type;location;lat;lon;timestamp;P1;durP1;ratioP1;P2;durP2;ratioP2
30133;SDS011;16946;49.984;10.672;2022-12-07T00:00:23;11.13;;;10.03;;
30133;SDS011;16946;49.984;10.672;2022-12-07T00:00:54;10.20;;;9.20;;
30133;SDS011;16946;49.984;10.672;2022-12-07T00:01:39;10.75;;;9.65;;
30133;SDS011;16946;49.984;10.672;2022-12-07T00:02:10;11.10;;;9.57;;
30133;SDS011;16946;49.984;10.672;2022-12-07T00:02:41;10.53;;;9.43;;
30133;SDS011;16946;49.984;10.672;2022-12-07T00:03:11;9.70;;;8.80;;
30133;SDS011;16946;49.984;10.672;2022-12-07T00:03:42;9.70;;;8.70;;
30133;SDS011;16946;49.984;10.672;2022-12-07T00:04:16;10.77;;;9.65;;
30133;SDS011;16946;49.984;10.672;2022-12-07T00:04:48;10.23;;;9.05;;
30133;SDS011;16946;49.984;10.672;2022-12-07T00:05:19;9.43;;;8.52;;
30133;SDS011;16946;49.984;10.672;2022-12-07T00:05:49;10.37;;;9.27;;
30133;SDS011;16946;49.984;10.672;2022-12-07T00:06:20;11.13;;;9.87;;
30133;SDS011;16946;49.984;10.672;2022-12-07T00:06:51;11.47;;;9.37;;
30133;SDS011;16946;49.984;10.672;2022-12-07T00:07:22;10.65;;;9.55;;
30133;SDS011;16946;49.984;10.672;2022-12-07T00:07:53;13.07;;;9.00;;
30133;SDS011;16946;49.984;10.672;2022-12-07T00:08:23;10.90;;;9.47;;
30133;SDS011;16946;49.984;10.672;2022-12-07T00:08:54;10.40;;;9.40;;
30133;SDS011;16946;49.984;10.672;2022-12-07T00:09:24;10.67;;;9.50;;
30133;SDS011;16946;49.984;10.672;2022-12-07T00:09:55;9.73;;;8.73;;
30133;SDS011;16946;49.984;10.672;2022-12-07T00:10:25;10.53;;;9.43;;
30133;SDS011;16946;49.984;10.672;2022-12-07T00:11:00;9.40;;;8.50;;
30133;SDS011;16946;49.984;10.672;2022-12-07T00:11:41;10.15;;;9.05;;
30133;SDS011;16946;49.984;10.672;2022-12-07T00:12:11;10.33;;;9.33;;
30133;SDS011;16946;49.984;10.672;2022-12-07T00:12:42;10.70;;;9.30;;
30133;SDS011;16946;49.984;10.672;2022-12-07T00:13:12;10.20;;;9.20;;
30133;SDS011;16946;49.984;10.672;2022-12-07T00:13:43;10.87;;;9.80;;
30133;SDS011;16946;49.984;10.672;2022-12-07T00:14:15;11.05;;;9.77;;
30133;SDS011;16946;49.984;10.672;2022-12-07T00:14:46;9.73;;;8.82;;
30133;SDS011;16946;49.984;10.672;2022-12-07T00:15:17;10.97;;;9.87;;
30133;SDS011;16946;49.984;10.672;2022-12-07T00:15:47;10.93;;;9.50;;
30133;SDS011;16946;49.984;10.672;2022-12-07T00:16:18;11.40;;;9.87;;
30133;SDS011;16946;49.984;10.672;2022-12-07T00:16:50;10.55;;;9.25;;
30133;SDS011;16946;49.984;10.672;2022-12-07T00:17:21;11.70;;;9.93;;
30133;SDS011;16946;49.984;10.672;2022-12-07T00:17:52;10.30;;;9.20;;
30133;SDS011;16946;49.984;10.672;2022-12-07T00:18:22;9.93;;;8.93;;
30133;SDS011;16946;49.984;10.672;2022-12-07T00:18:53;10.37;;;9.27;;
30133;SDS011;16946;49.984;10.672;2022-12-07T00:19:24;10.43;;;9.27;;
30133;SDS011;16946;49.984;10.672;2022-12-07T00:19:54;10.30;;;9.30;;
30133;SDS011;16946;49.984;10.672;2022-12-07T00:20:25;11.10;;;9.97;;
30133;SDS011;16946;49.984;10.672;2022-12-07T00:20:59;10.97;;;9.83;;
30133;SDS011;16946;49.984;10.672;2022-12-07T00:21:32;11.40;;;10.20;;
30133;SDS011;16946;49.984;10.672;2022-12-07T00:22:04;12.70;;;10.20;;
30133;SDS011;16946;49.984;10.672;2022-12-07T00:22:34;11.67;;;10.47;;
30133;SDS011;16946;49.984;10.672;2022-12-07T00:23:05;10.97;;;9.83;;
30133;SDS011;16946;49.984;10.672;2022-12-07T00:23:35;10.87;;;9.77;;
30133;SDS011;16946;49.984;10.672;2022-12-07T00:24:06;10.17;;;8.97;;
30133;SDS011;16946;49.984;10.672;2022-12-07T00:24:37;12.23;;;9.63;;
30133;SDS011;16946;49.984;10.672;2022-12-07T00:25:07;11.33;;;9.57;;
30133;SDS011;16946;49.984;10.672;2022-12-07T00:25:38;10.63;;;9.53;;
30133;SDS011;16946;49.984;10.672;2022-12-07T00:26:09;11.10;;;9.87;;
30133;SDS011;16946;49.984;10.672;2022-12-07T00:26:43;10.73;;;9.63;;
30133;SDS011;16946;49.984;10.672;2022-12-07T00:27:14;9.82;;;8.77;;
30133;SDS011;16946;49.984;10.672;2022-12-07T00:27:45;11.03;;;9.93;;
30133;SDS011;16946;49.984;10.672;2022-12-07T00:28:15;10.53;;;9.53;;
30133;SDS011;16946;49.984;10.672;2022-12-07T00:28:46;11.03;;;9.60;;
30133;SDS011;16946;49.984;10.672;2022-12-07T00:29:18;10.68;;;9.52;;
30133;SDS011;16946;49.984;10.672;2022-12-07T00:29:51;11.05;;;9.82;;
30133;SDS011;16946;49.984;10.672;2022-12-07T00:30:22;11.10;;;9.80;;
30133;SDS011;16946;49.984;10.672;2022-12-07T00:30:59;10.30;;;9.30;;
30133;SDS011;16946;49.984;10.672;2022-12-07T00:31:35;11.18;;;10.07;;
30133;SDS011;16946;49.984;10.672;2022-12-07T00:32:08;12.60;;;9.68;;
30133;SDS011;16946;49.984;10.672;2022-12-07T00:32:39;11.57;;;10.17;;
30133;SDS011;16946;49.984;10.672;2022-12-07T00:33:09;10.47;;;9.47;;
30133;SDS011;16946;49.984;10.672;2022-12-07T00:33:40;10.23;;;9.17;;
30133;SDS011;16946;49.984;10.672;2022-12-07T00:34:17;10.73;;;9.53;;
30133;SDS011;16946;49.984;10.672;2022-12-07T00:34:49;10.25;;;9.05;;
30133;SDS011;16946;49.984;10.672;2022-12-07T00:35:20;10.33;;;9.33;;
30133;SDS011;16946;49.984;10.672;2022-12-07T00:35:54;11.53;;;9.30;;
30133;SDS011;16946;49.984;10.672;2022-12-07T00:36:26;11.18;;;9.20;;
30133;SDS011;16946;49.984;10.672;2022-12-07T00:36:57;12.97;;;9.27;;
30133;SDS011;16946;49.984;10.672;2022-12-07T00:37:27;10.97;;;9.50;;
30133;SDS011;16946;49.984;10.672;2022-12-07T00:37:58;10.23;;;9.23;;
30133;SDS011;16946;49.984;10.672;2022-12-07T00:38:29;11.53;;;9.90;;
30133;SDS011;16946;49.984;10.672;2022-12-07T00:39:01;10.30;;;8.95;;
30133;SDS011;16946;49.984;10.672;2022-12-07T00:39:32;10.63;;;9.13;;
30133;SDS011;16946;49.984;10.672;2022-12-07T00:40:03;10.27;;;8.80;;
30133;SDS011;16946;49.984;10.672;2022-12-07T00:40:34;10.73;;;9.55;;
30133;SDS011;16946;49.984;10.672;2022-12-07T00:41:06;10.40;;;9.13;;
30133;SDS011;16946;49.984;10.672;2022-12-07T00:41:40;10.65;;;9.07;;
30133;SDS011;16946;49.984;10.672;2022-12-07T00:42:11;10.37;;;9.10;;
30133;SDS011;16946;49.984;10.672;2022-12-07T00:42:41;11.10;;;10.00;;
30133;SDS011;16946;49.984;10.672;2022-12-07T00:43:12;10.13;;;8.87;;
30133;SDS011;16946;49.984;10.672;2022-12-07T00:43:43;11.17;;;9.83;;
30133;SDS011;16946;49.984;10.672;2022-12-07T00:44:14;10.25;;;9.00;;
30133;SDS011;16946;49.984;10.672;2022-12-07T00:44:45;10.27;;;9.27;;
30133;SDS011;16946;49.984;10.672;2022-12-07T00:45:15;15.67;;;10.00;;
30133;SDS011;16946;49.984;10.672;2022-12-07T00:45:46;10.93;;;9.67;;
30133;SDS011;16946;49.984;10.672;2022-12-07T00:46:16;10.37;;;9.20;;
30133;SDS011;16946;49.984;10.672;2022-12-07T00:46:48;10.07;;;9.07;;
30133;SDS011;16946;49.984;10.672;2022-12-07T00:47:19;9.83;;;8.83;;
30133;SDS011;16946;49.984;10.672;2022-12-07T00:47:49;10.90;;;9.63;;
30133;SDS011;16946;49.984;10.672;2022-12-07T00:48:20;10.33;;;9.27;;
30133;SDS011;16946;49.984;10.672;2022-12-07T00:48:51;10.77;;;9.02;;
30133;SDS011;16946;49.984;10.672;2022-12-07T00:49:23;10.07;;;9.07;;
30133;SDS011;16946;49.984;10.672;2022-12-07T00:49:54;10.10;;;8.97;;
30133;SDS011;16946;49.984;10.672;2022-12-07T00:50:24;9.87;;;8.83;;
30133;SDS011;16946;49.984;10.672;2022-12-07T00:50:55;9.73;;;8.73;;
30133;SDS011;16946;49.984;10.672;2022-12-07T00:51:25;10.63;;;9.07;;
30133;SDS011;16946;49.984;10.672;2022-12-07T00:51:56;10.93;;;9.37;;
30133;SDS011;16946;49.984;10.672;2022-12-07T00:52:26;10.30;;;9.20;;
30133;SDS011;16946;49.984;10.672;2022-12-07T00:52:57;9.83;;;8.83;;
30133;SDS011;16946;49.984;10.672;2022-12-07T00:53:27;10.67;;;9.57;;
30133;SDS011;16946;49.984;10.672;2022-12-07T00:53:58;10.13;;;9.00;;
30133;SDS011;16946;49.984;10.672;2022-12-07T00:54:29;10.50;;;9.40;;
30133;SDS011;16946;49.984;10.672;2022-12-07T00:54:59;11.53;;;9.00;;
30133;SDS011;16946;49.984;10.672;2022-12-07T00:55:33;11.67;;;9.40;;
30133;SDS011;16946;49.984;10.672;2022-12-07T00:56:13;11.65;;;9.38;;
30133;SDS011;16946;49.984;10.672;2022-12-07T00:56:45;10.82;;;9.68;;
30133;SDS011;16946;49.984;10.672;2022-12-07T00:57:16;10.93;;;9.83;;
30133;SDS011;16946;49.984;10.672;2022-12-07T00:57:46;12.10;;;8.97;;
30133;SDS011;16946;49.984;10.672;2022-12-07T00:58:17;11.83;;;9.90;;
30133;SDS011;16946;49.984;10.672;2022-12-07T00:58:51;9.17;;;8.10;;
30133;SDS011;16946;49.984;10.672;2022-12-07T00:59:26;10.35;;;9.35;;
30133;SDS011;16946;49.984;10.672;2022-12-07T00:59:56;11.70;;;10.10;;
30133;SDS011;16946;49.984;10.672;2022-12-07T01:00:27;11.52;;;10.07;;
30133;SDS011;16946;49.984;10.672;2022-12-07T01:01:01;11.07;;;9.80;;
30133;SDS011;16946;49.984;10.672;2022-12-07T01:01:34;13.30;;;9.57;;
30133;SDS011;16946;49.984;10.672;2022-12-07T01:02:06;11.57;;;10.35;;
30133;SDS011;16946;49.984;10.672;2022-12-07T01:02:37;10.60;;;9.50;;
30133;SDS011;16946;49.984;10.672;2022-12-07T01:03:08;11.27;;;9.87;;
30133;SDS011;16946;49.984;10.672;2022-12-07T01:03:40;10.93;;;9.73;;
30133;SDS011;16946;49.984;10.672;2022-12-07T01:04:10;11.87;;;10.33;;
30133;SDS011;16946;49.984;10.672;2022-12-07T01:04:41;13.20;;;11.80;;
30133;SDS011;16946;49.984;10.672;2022-12-07T01:05:11;12.20;;;9.93;;
30133;SDS011;16946;49.984;10.672;2022-12-07T01:05:49;11.27;;;9.20;;
30133;SDS011;16946;49.984;10.672;2022-12-07T01:06:21;11.43;;;10.23;;
30133;SDS011;16946;49.984;10.672;2022-12-07T01:06:52;10.93;;;9.65;;
30133;SDS011;16946;49.984;10.672;2022-12-07T01:07:23;11.33;;;9.87;;
30133;SDS011;16946;49.984;10.672;2022-12-07T01:07:53;11.90;;;10.30;;
30133;SDS011;16946;49.984;10.672;2022-12-07T01:08:25;11.60;;;9.73;;
30133;SDS011;16946;49.984;10.672;2022-12-07T01:08:56;10.43;;;9.05;;
30133;SDS011;16946;49.984;10.672;2022-12-07T01:09:27;10.17;;;9.13;;
30133;SDS011;16946;49.984;10.672;2022-12-07T01:09:57;11.67;;;9.63;;
30133;SDS011;16946;49.984;10.672;2022-12-07T01:10:28;11.43;;;9.33;;
30133;SDS011;16946;49.984;10.672;2022-12-07T01:11:04;11.63;;;9.30;;
30133;SDS011;16946;49.984;10.672;2022-12-07T01:11:36;11.85;;;9.52;;
30133;SDS011;16946;49.984;10.672;2022-12-07T01:12:06;9.93;;;8.87;;
30133;SDS011;16946;49.984;10.672;2022-12-07T01:12:37;10.53;;;9.03;;
30133;SDS011;16946;49.984;10.672;2022-12-07T01:13:08;11.30;;;9.73;;
30133;SDS011;16946;49.984;10.672;2022-12-07T01:13:38;11.53;;;9.30;;
30133;SDS011;16946;49.984;10.672;2022-12-07T01:14:09;11.70;;;10.50;;
30133;SDS011;16946;49.984;10.672;2022-12-07T01:14:41;10.50;;;9.13;;
30133;SDS011;16946;49.984;10.672;2022-12-07T01:15:11;11.25;;;9.25;;
30133;SDS011;16946;49.984;10.672;2022-12-07T01:15:42;11.77;;;9.93;;
30133;SDS011;16946;49.984;10.672;2022-12-07T01:16:14;11.02;;;9.40;;
30133;SDS011;16946;49.984;10.672;2022-12-07T01:16:46;10.23;;;8.82;;
30133;SDS011;16946;49.984;10.672;2022-12-07T01:17:17;11.40;;;9.70;;
30133;SDS011;16946;49.984;10.672;2022-12-07T01:17:47;10.60;;;9.50;;
30133;SDS011;16946;49.984;10.672;2022-12-07T01:18:18;9.97;;;8.80;;
30133;SDS011;16946;49.984;10.672;2022-12-07T01:18:49;11.20;;;8.97;;
30133;SDS011;16946;49.984;10.672;2022-12-07T01:19:22;10.13;;;9.13;;
30133;SDS011;16946;49.984;10.672;2022-12-07T01:19:52;10.63;;;9.17;;
30133;SDS011;16946;49.984;10.672;2022-12-07T01:20:23;10.67;;;9.37;;
30133;SDS011;16946;49.984;10.672;2022-12-07T01:21:02;11.23;;;9.00;;
30133;SDS011;16946;49.984;10.672;2022-12-07T01:21:35;11.02;;;9.93;;
30133;SDS011;16946;49.984;10.672;2022-12-07T01:22:07;11.20;;;9.60;;
30133;SDS011;16946;49.984;10.672;2022-12-07T01:22:38;12.30;;;9.90;;
30133;SDS011;16946;49.984;10.672;2022-12-07T01:23:09;10.30;;;9.20;;
30133;SDS011;16946;49.984;10.672;2022-12-07T01:23:40;11.53;;;9.00;;
30133;SDS011;16946;49.984;10.672;2022-12-07T01:24:11;10.40;;;9.35;;
30133;SDS011;16946;49.984;10.672;2022-12-07T01:24:42;10.40;;;9.07;;
30133;SDS011;16946;49.984;10.672;2022-12-07T01:25:12;10.27;;;9.17;;
30133;SDS011;16946;49.984;10.672;2022-12-07T01:25:43;9.40;;;8.50;;
30133;SDS011;16946;49.984;10.672;2022-12-07T01:26:16;10.48;;;9.38;;
30133;SDS011;16946;49.984;10.672;2022-12-07T01:26:49;10.13;;;9.05;;
30133;SDS011;16946;49.984;10.672;2022-12-07T01:27:20;10.18;;;8.30;;
30133;SDS011;16946;49.984;10.672;2022-12-07T01:27:50;9.90;;;8.77;;
30133;SDS011;16946;49.984;10.672;2022-12-07T01:28:21;9.40;;;8.47;;
30133;SDS011;16946;49.984;10.672;2022-12-07T01:28:51;10.23;;;8.47;;
30133;SDS011;16946;49.984;10.672;2022-12-07T01:29:24;11.45;;;9.32;;
30133;SDS011;16946;49.984;10.672;2022-12-07T01:29:55;9.73;;;8.67;;
30133;SDS011;16946;49.984;10.672;2022-12-07T01:30:25;11.13;;;9.60;;
30133;SDS011;16946;49.984;10.672;2022-12-07T01:31:00;11.10;;;9.13;;
30133;SDS011;16946;49.984;10.672;2022-12-07T01:31:33;10.85;;;9.30;;
30133;SDS011;16946;49.984;10.672;2022-12-07T01:32:03;10.10;;;9.07;;
30133;SDS011;16946;49.984;10.672;2022-12-07T01:32:34;11.67;;;10.47;;
30133;SDS011;16946;49.984;10.672;2022-12-07T01:33:05;10.53;;;9.27;;
30133;SDS011;16946;49.984;10.672;2022-12-07T01:33:36;10.43;;;9.33;;
30133;SDS011;16946;49.984;10.672;2022-12-07T01:34:07;11.10;;;10.00;;
30133;SDS011;16946;49.984;10.672;2022-12-07T01:34:38;10.13;;;9.10;;
30133;SDS011;16946;49.984;10.672;2022-12-07T01:35:09;10.23;;;9.23;;
30133;SDS011;16946;49.984;10.672;2022-12-07T01:35:39;10.83;;;9.73;;
30133;SDS011;16946;49.984;10.672;2022-12-07T01:36:48;10.10;;;9.10;;
30133;SDS011;16946;49.984;10.672;2022-12-07T01:37:19;10.10;;;8.70;;
30133;SDS011;16946;49.984;10.672;2022-12-07T01:37:49;12.23;;;8.93;;
30133;SDS011;16946;49.984;10.672;2022-12-07T01:38:20;10.53;;;8.83;;
30133;SDS011;16946;49.984;10.672;2022-12-07T01:38:51;9.67;;;8.67;;
30133;SDS011;16946;49.984;10.672;2022-12-07T01:39:26;10.27;;;8.57;;
30133;SDS011;16946;49.984;10.672;2022-12-07T01:39:57;10.37;;;9.27;;
30133;SDS011;16946;49.984;10.672;2022-12-07T01:40:27;12.00;;;9.73;;
30133;SDS011;16946;49.984;10.672;2022-12-07T01:40:58;10.27;;;8.97;;
30133;SDS011;16946;49.984;10.672;2022-12-07T01:41:32;10.32;;;8.90;;
30133;SDS011;16946;49.984;10.672;2022-12-07T01:42:05;10.23;;;9.13;;
30133;SDS011;16946;49.984;10.672;2022-12-07T01:42:38;9.85;;;8.85;;
30133;SDS011;16946;49.984;10.672;2022-12-07T01:43:13;10.80;;;9.67;;
30133;SDS011;16946;49.984;10.672;2022-12-07T01:46:02;11.70;;;9.77;;
30133;SDS011;16946;49.984;10.672;2022-12-07T01:46:34;9.88;;;8.88;;
30133;SDS011;16946;49.984;10.672;2022-12-07T01:47:04;12.07;;;10.27;;
30133;SDS011;16946;49.984;10.672;2022-12-07T01:47:35;10.23;;;9.13;;
30133;SDS011;16946;49.984;10.672;2022-12-07T01:48:06;12.17;;;10.87;;
30133;SDS011;16946;49.984;10.672;2022-12-07T01:48:39;12.23;;;10.95;;
30133;SDS011;16946;49.984;10.672;2022-12-07T01:49:14;10.73;;;9.63;;
30133;SDS011;16946;49.984;10.672;2022-12-07T01:49:52;12.48;;;10.18;;
30133;SDS011;16946;49.984;10.672;2022-12-07T01:50:24;11.33;;;10.17;;
30133;SDS011;16946;49.984;10.672;2022-12-07T01:50:59;11.38;;;9.95;;
30133;SDS011;16946;49.984;10.672;2022-12-07T01:51:34;10.82;;;9.57;;
30133;SDS011;16946;49.984;10.672;2022-12-07T01:52:10;12.75;;;11.35;;
30133;SDS011;16946;49.984;10.672;2022-12-07T01:52:47;12.85;;;10.55;;
30133;SDS011;16946;49.984;10.672;2022-12-07T01:53:19;12.38;;;11.07;;
30133;SDS011;16946;49.984;10.672;2022-12-07T01:53:51;13.68;;;11.88;;
30133;SDS011;16946;49.984;10.672;2022-12-07T01:54:22;11.70;;;10.50;;
30133;SDS011;16946;49.984;10.672;2022-12-07T01:54:54;13.87;;;12.43;;
30133;SDS011;16946;49.984;10.672;2022-12-07T01:55:27;12.52;;;11.30;;
30133;SDS011;16946;49.984;10.672;2022-12-07T01:55:58;13.90;;;10.80;;
30133;SDS011;16946;49.984;10.672;2022-12-07T01:56:30;13.70;;;12.02;;
30133;SDS011;16946;49.984;10.672;2022-12-07T01:57:02;14.30;;;12.13;;
30133;SDS011;16946;49.984;10.672;2022-12-07T01:57:34;17.42;;;12.13;;
30133;SDS011;16946;49.984;10.672;2022-12-07T01:58:09;13.38;;;11.98;;
30133;SDS011;16946;49.984;10.672;2022-12-07T01:58:42;13.23;;;11.82;;
30133;SDS011;16946;49.984;10.672;2022-12-07T01:59:15;13.38;;;11.07;;
30133;SDS011;16946;49.984;10.672;2022-12-07T01:59:48;13.52;;;11.15;;
30133;SDS011;16946;49.984;10.672;2022-12-07T02:00:20;13.50;;;11.90;;
30133;SDS011;16946;49.984;10.672;2022-12-07T02:00:51;13.00;;;11.60;;
30133;SDS011;16946;49.984;10.672;2022-12-07T02:01:22;12.10;;;10.67;;
30133;SDS011;16946;49.984;10.672;2022-12-07T02:01:53;12.83;;;11.20;;
30133;SDS011;16946;49.984;10.672;2022-12-07T02:02:33;12.93;;;11.40;;
30133;SDS011;16946;49.984;10.672;2022-12-07T02:03:11;12.98;;;11.38;;
30133;SDS011;16946;49.984;10.672;2022-12-07T02:03:48;13.02;;;11.23;;
30133;SDS011;16946;49.984;10.672;2022-12-07T02:04:19;13.07;;;11.13;;
30133;SDS011;16946;49.984;10.672;2022-12-07T02:04:51;14.00;;;11.07;;
30133;SDS011;16946;49.984;10.672;2022-12-07T02:05:24;13.30;;;11.93;;
30133;SDS011;16946;49.984;10.672;2022-12-07T02:05:55;14.10;;;11.15;;
30133;SDS011;16946;49.984;10.672;2022-12-07T02:06:27;13.95;;;11.65;;
30133;SDS011;16946;49.984;10.672;2022-12-07T02:06:57;13.40;;;11.53;;
30133;SDS011;16946;49.984;10.672;2022-12-07T02:07:28;12.27;;;10.90;;
30133;SDS011;16946;49.984;10.672;2022-12-07T02:07:59;15.18;;;11.65;;
30133;SDS011;16946;49.984;10.672;2022-12-07T02:08:31;13.35;;;11.57;;
30133;SDS011;16946;49.984;10.672;2022-12-07T02:09:02;12.32;;;10.80;;
30133;SDS011;16946;49.984;10.672;2022-12-07T02:09:32;12.40;;;10.23;;
30133;SDS011;16946;49.984;10.672;2022-12-07T02:10:13;13.03;;;11.03;;
30133;SDS011;16946;49.984;10.672;2022-12-07T02:10:44;13.55;;;11.93;;
30133;SDS011;16946;49.984;10.672;2022-12-07T02:11:15;11.93;;;10.63;;
30133;SDS011;16946;49.984;10.672;2022-12-07T02:11:46;12.80;;;10.68;;
30133;SDS011;16946;49.984;10.672;2022-12-07T02:12:17;11.67;;;10.47;;
30133;SDS011;16946;49.984;10.672;2022-12-07T02:12:49;11.32;;;9.93;;
30133;SDS011;16946;49.984;10.672;2022-12-07T02:13:37;13.13;;;11.13;;
30133;SDS011;16946;49.984;10.672;2022-12-07T02:14:09;12.32;;;10.85;;
30133;SDS011;16946;49.984;10.672;2022-12-07T02:14:40;12.37;;;10.67;;
30133;SDS011;16946;49.984;10.672;2022-12-07T02:15:11;13.60;;;11.57;;
30133;SDS011;16946;49.984;10.672;2022-12-07T02:16:34;13.00;;;10.63;;
30133;SDS011;16946;49.984;10.672;2022-12-07T02:18:25;11.43;;;10.15;;
30133;SDS011;16946;49.984;10.672;2022-12-07T02:24:57;14.00;;;11.20;;
30133;SDS011;16946;49.984;10.672;2022-12-07T02:27:11;12.80;;;11.32;;
30133;SDS011;16946;49.984;10.672;2022-12-07T02:29:39;15.35;;;11.40;;
30133;SDS011;16946;49.984;10.672;2022-12-07T02:30:31;13.90;;;11.52;;
30133;SDS011;16946;49.984;10.672;2022-12-07T02:31:06;14.23;;;11.73;;
30133;SDS011;16946;49.984;10.672;2022-12-07T02:31:44;12.55;;;10.52;;
30133;SDS011;16946;49.984;10.672;2022-12-07T02:33:28;13.73;;;12.13;;
30133;SDS011;16946;49.984;10.672;2022-12-07T02:34:22;15.00;;;12.80;;
30133;SDS011;16946;49.984;10.672;2022-12-07T02:35:46;14.57;;;12.50;;
30133;SDS011;16946;49.984;10.672;2022-12-07T02:36:27;14.23;;;12.73;;
30133;SDS011;16946;49.984;10.672;2022-12-07T02:37:02;17.00;;;12.55;;
30133;SDS011;16946;49.984;10.672;2022-12-07T02:37:41;14.73;;;12.57;;
30133;SDS011;16946;49.984;10.672;2022-12-07T02:38:43;13.75;;;11.73;;
30133;SDS011;16946;49.984;10.672;2022-12-07T02:41:34;14.70;;;13.07;;
30133;SDS011;16946;49.984;10.672;2022-12-07T02:42:29;15.85;;;13.05;;
30133;SDS011;16946;49.984;10.672;2022-12-07T02:43:09;15.75;;;13.52;;
30133;SDS011;16946;49.984;10.672;2022-12-07T02:43:57;14.77;;;12.70;;
30133;SDS011;16946;49.984;10.672;2022-12-07T02:44:34;15.57;;;13.60;;
30133;SDS011;16946;49.984;10.672;2022-12-07T02:45:05;14.37;;;12.40;;
30133;SDS011;16946;49.984;10.672;2022-12-07T02:45:38;14.85;;;13.30;;
30133;SDS011;16946;49.984;10.672;2022-12-07T02:46:13;15.68;;;13.23;;
30133;SDS011;16946;49.984;10.672;2022-12-07T02:46:51;14.80;;;12.90;;
30133;SDS011;16946;49.984;10.672;2022-12-07T02:47:24;16.35;;;13.93;;
30133;SDS011;16946;49.984;10.672;2022-12-07T02:47:56;15.95;;;14.25;;
30133;SDS011;16946;49.984;10.672;2022-12-07T02:48:29;15.38;;;13.23;;
30133;SDS011;16946;49.984;10.672;2022-12-07T02:49:03;16.20;;;14.45;;
30133;SDS011;16946;49.984;10.672;2022-12-07T02:49:35;15.57;;;13.68;;
30133;SDS011;16946;49.984;10.672;2022-12-07T02:50:07;15.65;;;13.00;;
30133;SDS011;16946;49.984;10.672;2022-12-07T02:50:38;16.75;;;13.45;;
30133;SDS011;16946;49.984;10.672;2022-12-07T02:51:13;15.70;;;12.73;;
30133;SDS011;16946;49.984;10.672;2022-12-07T02:51:45;15.80;;;13.97;;
30133;SDS011;16946;49.984;10.672;2022-12-07T02:52:16;14.50;;;12.45;;
30133;SDS011;16946;49.984;10.672;2022-12-07T02:52:47;15.83;;;13.63;;
30133;SDS011;16946;49.984;10.672;2022-12-07T02:54:09;17.50;;;13.70;;
30133;SDS011;16946;49.984;10.672;2022-12-07T02:54:43;16.77;;;13.38;;
30133;SDS011;16946;49.984;10.672;2022-12-07T02:55:14;15.40;;;12.87;;
30133;SDS011;16946;49.984;10.672;2022-12-07T02:55:47;15.70;;;12.52;;
30133;SDS011;16946;49.984;10.672;2022-12-07T03:00:36;13.70;;;10.57;;
30133;SDS011;16946;49.984;10.672;2022-12-07T03:02:33;14.55;;;12.18;;
30133;SDS011;16946;49.984;10.672;2022-12-07T03:03:14;12.45;;;10.82;;
30133;SDS011;16946;49.984;10.672;2022-12-07T03:03:47;14.35;;;11.68;;
30133;SDS011;16946;49.984;10.672;2022-12-07T03:06:48;13.50;;;11.23;;
30133;SDS011;16946;49.984;10.672;2022-12-07T03:12:06;13.43;;;11.68;;
30133;SDS011;16946;49.984;10.672;2022-12-07T03:12:44;15.07;;;12.23;;
30133;SDS011;16946;49.984;10.672;2022-12-07T03:14:31;15.40;;;11.18;;
30133;SDS011;16946;49.984;10.672;2022-12-07T03:15:22;13.32;;;11.63;;
30133;SDS011;16946;49.984;10.672;2022-12-07T03:16:04;14.98;;;12.48;;
30133;SDS011;16946;49.984;10.672;2022-12-07T03:16:54;13.73;;;11.82;;
30133;SDS011;16946;49.984;10.672;2022-12-07T03:17:40;14.27;;;12.07;;
30133;SDS011;16946;49.984;10.672;2022-12-07T03:18:14;13.35;;;11.43;;
30133;SDS011;16946;49.984;10.672;2022-12-07T03:19:05;15.63;;;12.25;;
30133;SDS011;16946;49.984;10.672;2022-12-07T03:19:45;14.50;;;11.48;;
30133;SDS011;16946;49.984;10.672;2022-12-07T03:20:19;15.63;;;12.25;;
30133;SDS011;16946;49.984;10.672;2022-12-07T03:20:53;13.73;;;12.13;;
30133;SDS011;16946;49.984;10.672;2022-12-07T03:21:32;13.07;;;11.70;;
30133;SDS011;16946;49.984;10.672;2022-12-07T03:22:10;13.80;;;11.02;;
30133;SDS011;16946;49.984;10.672;2022-12-07T03:22:42;13.48;;;11.30;;
30133;SDS011;16946;49.984;10.672;2022-12-07T03:23:15;13.73;;;11.82;;
30133;SDS011;16946;49.984;10.672;2022-12-07T03:23:49;14.30;;;12.68;;
30133;SDS011;16946;49.984;10.672;2022-12-07T03:24:24;14.75;;;12.20;;
30133;SDS011;16946;49.984;10.672;2022-12-07T03:25:00;14.13;;;12.43;;
30133;SDS011;16946;49.984;10.672;2022-12-07T03:25:34;12.55;;;10.80;;
30133;SDS011;16946;49.984;10.672;2022-12-07T03:26:10;14.88;;;12.50;;
30133;SDS011;16946;49.984;10.672;2022-12-07T03:26:47;15.80;;;13.00;;
30133;SDS011;16946;49.984;10.672;2022-12-07T03:27:23;13.63;;;11.68;;
30133;SDS011;16946;49.984;10.672;2022-12-07T03:27:57;13.55;;;12.15;;
30133;SDS011;16946;49.984;10.672;2022-12-07T03:28:31;15.80;;;12.85;;
30133;SDS011;16946;49.984;10.672;2022-12-07T03:29:07;13.80;;;11.30;;
30133;SDS011;16946;49.984;10.672;2022-12-07T03:29:44;14.27;;;12.43;;
30133;SDS011;16946;49.984;10.672;2022-12-07T03:30:26;14.73;;;11.52;;
30133;SDS011;16946;49.984;10.672;2022-12-07T03:31:03;15.05;;;12.10;;
30133;SDS011;16946;49.984;10.672;2022-12-07T03:31:38;13.88;;;12.38;;
30133;SDS011;16946;49.984;10.672;2022-12-07T03:32:14;13.52;;;11.55;;
30133;SDS011;16946;49.984;10.672;2022-12-07T03:33:11;13.88;;;12.30;;
30133;SDS011;16946;49.984;10.672;2022-12-07T03:33:58;14.63;;;12.73;;
30133;SDS011;16946;49.984;10.672;2022-12-07T03:35:23;13.73;;;12.25;;
30133;SDS011;16946;49.984;10.672;2022-12-07T03:35:58;12.95;;;11.60;;
30133;SDS011;16946;49.984;10.672;2022-12-07T03:37:12;13.80;;;12.30;;
30133;SDS011;16946;49.984;10.672;2022-12-07T03:38:35;14.50;;;12.85;;
30133;SDS011;16946;49.984;10.672;2022-12-07T03:38:50;16.90;;;13.40;;
30133;SDS011;16946;49.984;10.672;2022-12-07T03:39:35;14.98;;;13.02;;
30133;SDS011;16946;49.984;10.672;2022-12-07T03:40:28;13.82;;;11.70;;
30133;SDS011;16946;49.984;10.672;2022-12-07T03:41:14;15.98;;;13.10;;
30133;SDS011;16946;49.984;10.672;2022-12-07T03:41:49;15.95;;;13.32;;
30133;SDS011;16946;49.984;10.672;2022-12-07T03:42:21;16.10;;;13.73;;
30133;SDS011;16946;49.984;10.672;2022-12-07T03:42:52;14.77;;;12.13;;
30133;SDS011;16946;49.984;10.672;2022-12-07T03:43:24;14.57;;;12.30;;
30133;SDS011;16946;49.984;10.672;2022-12-07T03:43:55;14.13;;;12.43;;
30133;SDS011;16946;49.984;10.672;2022-12-07T03:44:26;14.68;;;13.07;;
30133;SDS011;16946;49.984;10.672;2022-12-07T03:44:58;16.13;;;13.68;;
30133;SDS011;16946;49.984;10.672;2022-12-07T03:45:54;14.25;;;12.60;;
30133;SDS011;16946;49.984;10.672;2022-12-07T03:48:02;13.70;;;12.13;;
30133;SDS011;16946;49.984;10.672;2022-12-07T03:48:42;13.52;;;11.65;;
30133;SDS011;16946;49.984;10.672;2022-12-07T03:49:23;14.40;;;12.52;;
30133;SDS011;16946;49.984;10.672;2022-12-07T03:50:03;15.70;;;12.30;;
30133;SDS011;16946;49.984;10.672;2022-12-07T03:51:13;16.30;;;13.60;;
30133;SDS011;16946;49.984;10.672;2022-12-07T03:52:25;14.40;;;12.07;;
30133;SDS011;16946;49.984;10.672;2022-12-07T03:53:18;17.33;;;14.00;;